createdAt,value
2023-01-23T00:03:19.102Z,2
2023-01-23T00:09:11.917Z,2.3
2023-01-23T00:15:02.434Z,2.2
2023-01-23T00:20:55.134Z,2.3
2023-01-23T00:26:46.804Z,2.2
2023-01-23T00:32:38.274Z,2.2
2023-01-23T00:38:29.115Z,2.2
2023-01-23T00:44:19.597Z,2.2
2023-01-23T00:50:10.325Z,2.3
2023-01-23T00:56:03.642Z,2.2
2023-01-23T01:01:55.506Z,2.2
2023-01-23T01:07:49.491Z,2.1
2023-01-23T01:13:43.129Z,2.2
2023-01-23T01:19:43.050Z,2.2
2023-01-23T01:25:33.702Z,2.2
2023-01-23T01:31:42.677Z,2.3
2023-01-23T01:37:34.389Z,2.3
2023-01-23T01:43:27.471Z,2.3
2023-01-23T01:49:22.033Z,2.3
2023-01-23T01:55:27.833Z,2.3
2023-01-23T02:01:21.927Z,2.2
2023-01-23T02:07:41.342Z,2.2
2023-01-23T02:13:48.651Z,2.1
2023-01-23T02:19:50.533Z,2.2
2023-01-23T02:25:45.667Z,2.3
2023-01-23T02:31:39.184Z,2.3
2023-01-23T02:37:36.447Z,2.2
2023-01-23T02:43:28.573Z,2.3
2023-01-23T02:49:25.607Z,2.3
2023-01-23T02:55:18.228Z,2.3
2023-01-23T03:01:15.429Z,2.2
2023-01-23T03:07:10.254Z,2.1
2023-01-23T03:13:01.349Z,2
2023-01-23T03:18:56.571Z,2
2023-01-23T03:24:58.869Z,2
2023-01-23T03:30:57.144Z,2.1
2023-01-23T03:36:49.027Z,2
2023-01-23T03:42:40.634Z,2
2023-01-23T03:48:35.913Z,2
2023-01-23T03:54:26.306Z,1.7
2023-01-23T04:00:19.378Z,1.8
2023-01-23T04:06:11.951Z,1.8
2023-01-23T04:12:08.197Z,1.8
2023-01-23T04:18:00.477Z,1.6
2023-01-23T04:23:53.268Z,1.6
2023-01-23T04:29:47.698Z,1.9
2023-01-23T04:35:37.148Z,2
2023-01-23T04:41:40.297Z,1.9
2023-01-23T04:47:31.100Z,1.9
2023-01-23T04:53:23.476Z,1.7
2023-01-23T04:59:14.009Z,1.7
2023-01-23T05:05:05.221Z,1.8
2023-01-23T05:10:56.185Z,1.8
2023-01-23T05:16:49.623Z,1.7
2023-01-23T05:22:43.947Z,1.7
2023-01-23T05:28:35.436Z,1.6
2023-01-23T05:34:24.785Z,1.7
2023-01-23T05:40:17.705Z,1.6
2023-01-23T05:46:13.268Z,1.7
2023-01-23T05:52:07.432Z,1.6
2023-01-23T05:57:58.901Z,1.5
2023-01-23T06:03:48.286Z,1.4
2023-01-23T06:09:39.182Z,1.6
2023-01-23T06:15:35.148Z,1.7
2023-01-23T06:21:26.815Z,1.5
2023-01-23T06:27:18.090Z,1.6
2023-01-23T06:33:09.158Z,1.8
2023-01-23T06:38:59.852Z,1.8
2023-01-23T06:44:50.801Z,1.8
2023-01-23T06:50:41.498Z,1.8
2023-01-23T06:56:33.232Z,1.9
2023-01-23T07:02:28.407Z,1.9
2023-01-23T07:08:19.931Z,1.9
2023-01-23T07:14:17.768Z,1.9
2023-01-23T07:20:12.825Z,2
2023-01-23T07:26:04.996Z,2
2023-01-23T07:31:56.515Z,1.9
2023-01-23T07:37:47.034Z,2
2023-01-23T07:43:38.184Z,2.1
2023-01-23T07:49:35.510Z,2
2023-01-23T07:55:27.214Z,2
2023-01-23T08:01:23.465Z,2
2023-01-23T08:07:14.909Z,2
2023-01-23T08:13:07.891Z,2.1
2023-01-23T08:25:13.129Z,2
2023-01-23T08:31:11.356Z,1.9
2023-01-23T08:37:03.344Z,2
2023-01-23T08:42:58.352Z,2.2
2023-01-23T08:48:49.634Z,2.2
2023-01-23T08:54:42.311Z,2.2
2023-01-23T09:00:36.041Z,2.3
2023-01-23T09:06:27.890Z,2.4
2023-01-23T09:12:20.028Z,2.4
2023-01-23T09:18:11.755Z,2.3
2023-01-23T09:24:07.275Z,2.3
2023-01-23T09:29:56.895Z,2.4
2023-01-23T09:35:49.120Z,2.5
2023-01-23T09:41:41.362Z,2.6
2023-01-23T09:47:31.328Z,2.7
2023-01-23T09:59:29.066Z,2.6
2023-01-23T10:05:31.932Z,2.8
2023-01-23T10:11:24.591Z,2.9
2023-01-23T10:17:14.440Z,2.8
2023-01-23T10:23:06.261Z,2.8
2023-01-23T10:28:56.336Z,3
2023-01-23T10:34:51.476Z,3
2023-01-23T10:40:41.568Z,3
2023-01-23T10:46:37.319Z,3
2023-01-23T10:52:29.575Z,3.1
2023-01-23T10:58:22.776Z,3.2
2023-01-23T11:04:14.839Z,3.2
2023-01-23T11:10:06.155Z,3.2
2023-01-23T11:16:00.375Z,3.2
2023-01-23T11:21:56.963Z,3.3
2023-01-23T11:27:56.097Z,3.4
2023-01-23T11:33:47.978Z,3.3
2023-01-23T11:39:40.942Z,3.3
2023-01-23T11:45:33.964Z,3.4
2023-01-23T11:51:27.353Z,3.5
2023-01-23T12:03:28.837Z,3.3
2023-01-23T12:09:22.196Z,3.5
2023-01-23T12:15:13.067Z,3.3
2023-01-23T12:21:04.065Z,3.4
2023-01-23T12:26:55.596Z,3.4
2023-01-23T12:32:48.432Z,3.5
2023-01-23T12:38:43.604Z,3.5
2023-01-23T12:44:33.109Z,3.5
2023-01-23T12:50:22.065Z,3.6
2023-01-23T12:56:13.794Z,3.7
2023-01-23T13:02:04.142Z,3.7
2023-01-23T13:07:56.505Z,3.7
2023-01-23T13:13:46.988Z,3.6
2023-01-23T13:19:38.967Z,3.7
2023-01-23T13:25:29.777Z,3.7
2023-01-23T13:31:21.189Z,3.7
2023-01-23T13:37:13.187Z,3.7
2023-01-23T13:43:03.329Z,3.8
2023-01-23T14:23:31.147Z,3.7
2023-01-23T14:29:20.548Z,3.7
2023-01-23T14:35:13.255Z,3.7
2023-01-23T14:41:04.307Z,3.6
2023-01-23T14:46:55.892Z,3.6
2023-01-23T14:52:48.088Z,3.6
2023-01-23T14:58:37.531Z,3.6
2023-01-23T15:04:28.538Z,3.7
2023-01-23T15:10:17.326Z,3.6
2023-01-23T15:16:05.383Z,3.6
2023-01-23T15:21:53.488Z,3.6
2023-01-23T15:27:42.685Z,3.6
2023-01-23T15:33:32.274Z,3.6
2023-01-23T15:39:20.720Z,3.5
2023-01-23T15:45:11.793Z,3.6
2023-01-23T15:51:00.065Z,3.5
2023-01-23T15:56:56.979Z,3.6
2023-01-23T16:02:57.598Z,3.5
2023-01-23T16:08:55.014Z,3.6
2023-01-23T16:14:54.217Z,3.5
2023-01-23T16:20:45.991Z,3.6
2023-01-23T16:26:40.061Z,3.6
2023-01-23T16:32:36.943Z,3.6
2023-01-23T16:38:34.114Z,3.5
2023-01-23T16:44:25.014Z,3.5
2023-01-23T16:50:20.595Z,3.5
2023-01-23T16:56:10.541Z,3.5
2023-01-23T17:02:01.411Z,3.5
2023-01-23T17:07:53.034Z,3.5
2023-01-23T17:13:43.601Z,3.5
2023-01-23T17:19:32.658Z,3.5
2023-01-23T17:25:24.180Z,3.5
2023-01-23T17:31:15.215Z,3.5
2023-01-23T17:37:10.180Z,3.5
2023-01-23T17:43:00.496Z,3.5
2023-01-23T17:48:52.488Z,3.5
2023-01-23T17:54:42.089Z,3.5
2023-01-23T18:00:32.005Z,3.4
2023-01-23T18:06:24.165Z,3.3
2023-01-23T18:12:21.340Z,3.4
2023-01-23T18:18:10.533Z,3.4
2023-01-23T18:24:01.847Z,3.4
2023-01-23T18:29:56.866Z,3.4
2023-01-23T18:35:51.310Z,3.5
2023-01-23T18:41:44.180Z,3.4
2023-01-23T18:47:36.432Z,3.4
2023-01-23T18:53:28.667Z,3.5
2023-01-23T18:59:20.067Z,3.5
2023-01-23T19:05:10.392Z,3.3
2023-01-23T19:11:02.442Z,3.4
2023-01-23T19:16:55.495Z,3.5
2023-01-23T19:22:49.922Z,3.4
2023-01-23T19:28:40.880Z,3.4
2023-01-23T19:34:34.221Z,3.4
2023-01-23T19:40:31.402Z,3.3
2023-01-23T19:46:23.514Z,3.5
2023-01-23T19:52:20.270Z,3.4
2023-01-23T19:58:14.172Z,3.4
2023-01-23T20:04:09.827Z,3.5
2023-01-23T20:10:06.633Z,3.5
2023-01-23T20:15:57.703Z,3.5
2023-01-23T20:21:50.058Z,3.4
2023-01-23T20:27:40.763Z,3.5
2023-01-23T20:33:36.865Z,3.4
2023-01-23T20:39:28.238Z,3.4
2023-01-23T20:51:28.275Z,3.6
2023-01-23T20:57:21.515Z,3.5
2023-01-23T21:03:16.588Z,3.5
2023-01-23T21:09:08.599Z,3.4
2023-01-23T21:15:01.904Z,3.4
2023-01-23T21:20:55.421Z,3.5
2023-01-23T21:26:49.353Z,3.5
2023-01-23T21:32:40.886Z,3.5
2023-01-23T21:38:37.175Z,3.4
2023-01-23T21:44:28.583Z,3.5
2023-01-23T21:50:22.627Z,3.3
2023-01-23T21:56:16.156Z,3.5
2023-01-23T22:02:06.183Z,3.5
2023-01-23T22:07:57.058Z,3.5
2023-01-23T22:13:46.038Z,3.4
2023-01-23T22:19:39.115Z,3.5
2023-01-23T22:25:28.777Z,3.6
2023-01-23T22:31:16.841Z,3.5
2023-01-23T22:37:09.350Z,3.6
2023-01-23T22:42:59.503Z,3.6
2023-01-23T22:48:50.511Z,3.6
2023-01-23T22:54:42.223Z,3.6
2023-01-23T23:00:31.280Z,3.5
2023-01-23T23:06:24.108Z,3.3
2023-01-23T23:12:14.794Z,3.5
2023-01-23T23:18:03.822Z,3.5
2023-01-23T23:23:55.441Z,3.4
2023-01-23T23:29:47.770Z,3.5
2023-01-23T23:35:39.844Z,3.5
2023-01-23T23:41:31.094Z,3.4
2023-01-23T23:54:00.899Z,3.5
2023-01-23T23:59:52.956Z,3.4
